createdAt,value
2022-08-02T00:01:41.349Z,7.17
2022-08-02T00:04:10.065Z,5.33
2022-08-02T00:06:39.790Z,9.87
2022-08-02T00:09:07.721Z,6.17
2022-08-02T00:11:35.088Z,9.90
2022-08-02T00:14:02.346Z,5.57
2022-08-02T00:16:37.726Z,10.63
2022-08-02T00:19:07.404Z,4.60
2022-08-02T00:21:34.684Z,7.80
2022-08-02T00:24:29.491Z,11.57
2022-08-02T00:26:49.066Z,5.27
2022-08-02T00:29:16.360Z,5.83
2022-08-02T00:31:43.532Z,7.30
2022-08-02T00:34:29.360Z,4.37
2022-08-02T00:36:58.405Z,5.60
2022-08-02T00:39:34.938Z,9.87
2022-08-02T00:42:03.264Z,5.17
2022-08-02T00:44:30.503Z,5.17
2022-08-02T00:46:57.755Z,6.30
2022-08-02T00:49:25.168Z,5.37
2022-08-02T00:51:52.523Z,6.73
2022-08-02T00:54:20.340Z,9.57
2022-08-02T00:56:50.165Z,8.53
2022-08-02T00:59:19.974Z,8.07
2022-08-02T01:01:56.626Z,10.33
2022-08-02T01:04:29.700Z,9.90
2022-08-02T01:06:58.193Z,4.83
2022-08-02T01:09:27.105Z,4.57
2022-08-02T01:11:54.462Z,7.43
2022-08-02T01:14:24.691Z,6.53
2022-08-02T01:17:01.445Z,5.43
2022-08-02T01:19:47.338Z,4.57
2022-08-02T01:22:20.709Z,7.27
2022-08-02T01:24:56.898Z,6.73
2022-08-02T01:27:43.693Z,7.80
2022-08-02T01:30:13.230Z,8.30
2022-08-02T01:32:44.150Z,4.43
2022-08-02T01:35:14.876Z,9.03
2022-08-02T01:37:46.426Z,7.70
2022-08-02T01:40:24.902Z,7.13
2022-08-02T01:42:54.775Z,9.10
2022-08-02T01:45:23.037Z,4.20
2022-08-02T01:47:51.394Z,5.80
2022-08-02T01:50:19.473Z,5.53
2022-08-02T01:52:53.183Z,7.73
2022-08-02T01:55:33.490Z,5.57
2022-08-02T01:58:15.912Z,4.67
2022-08-02T02:00:43.278Z,7.63
2022-08-02T02:03:16.595Z,6.90
2022-08-02T02:05:44.764Z,4.60
2022-08-02T02:08:12.772Z,8.30
2022-08-02T02:10:40.972Z,5.80
2022-08-02T02:18:28.295Z,5.13
2022-08-02T02:20:55.959Z,7.60
2022-08-02T02:23:26.390Z,7.47
2022-08-02T02:25:59.068Z,8.33
2022-08-02T02:28:31.038Z,7.80
2022-08-02T02:31:02.893Z,6.20
2022-08-02T02:33:31.565Z,5.33
2022-08-02T02:36:01.107Z,8.47
2022-08-02T02:38:30.287Z,7.63
2022-08-02T02:40:59.469Z,7.30
2022-08-02T02:43:29.400Z,10.13
2022-08-02T02:45:57.884Z,7.57
2022-08-02T02:48:27.078Z,11.23
2022-08-02T02:50:55.131Z,6.97
2022-08-02T02:53:23.328Z,7.77
2022-08-02T02:56:01.557Z,6.87
2022-08-02T02:58:30.421Z,7.13
2022-08-02T03:01:16.315Z,7.83
2022-08-02T03:03:44.927Z,6.90
2022-08-02T03:06:15.644Z,4.40
2022-08-02T03:08:43.714Z,10.23
2022-08-02T03:11:11.495Z,7.47
2022-08-02T03:13:39.747Z,6.57
2022-08-02T03:16:08.208Z,4.93
2022-08-02T03:18:37.119Z,11.97
2022-08-02T03:21:06.272Z,8.10
2022-08-02T03:23:34.219Z,6.83
2022-08-02T03:26:01.937Z,6.57
2022-08-02T03:28:34.293Z,7.93
2022-08-02T03:31:02.025Z,8.77
2022-08-02T03:33:29.647Z,9.63
2022-08-02T03:35:58.238Z,6.10
2022-08-02T03:38:27.851Z,11.30
2022-08-02T03:40:57.819Z,6.83
2022-08-02T03:43:25.335Z,7.37
2022-08-02T03:45:56.747Z,6.67
2022-08-02T03:48:33.914Z,6.23
2022-08-02T03:51:02.945Z,8.03
2022-08-02T03:53:30.298Z,6.50
2022-08-02T03:56:00.521Z,9.57
2022-08-02T03:58:27.767Z,5.10
2022-08-02T04:00:56.385Z,7.10
2022-08-02T04:03:23.748Z,9.20
2022-08-02T04:06:03.235Z,10.80
2022-08-02T04:08:37.529Z,5.87
2022-08-02T04:11:26.349Z,8.40
2022-08-02T04:13:56.704Z,6.57
2022-08-02T04:16:38.631Z,8.13
2022-08-02T04:19:06.546Z,8.43
2022-08-02T04:21:48.593Z,7.00
2022-08-02T04:24:25.159Z,7.47
2022-08-02T04:26:58.006Z,4.40
2022-08-02T04:29:32.662Z,4.40
2022-08-02T04:32:00.871Z,6.27
2022-08-02T04:34:29.541Z,8.07
2022-08-02T04:36:59.996Z,6.67
2022-08-02T04:39:27.747Z,7.00
2022-08-02T04:41:57.934Z,4.40
2022-08-02T04:44:26.746Z,5.33
2022-08-02T04:46:56.556Z,5.20
2022-08-02T04:49:25.213Z,5.13
2022-08-02T04:51:52.509Z,6.93
2022-08-02T04:54:19.762Z,4.50
2022-08-02T04:56:46.953Z,5.60
2022-08-02T04:59:14.281Z,5.80
2022-08-02T05:01:42.482Z,16.60
2022-08-02T05:04:10.046Z,10.27
2022-08-02T05:06:37.245Z,8.73
2022-08-02T05:09:06.778Z,6.63
2022-08-02T05:11:36.161Z,5.73
2022-08-02T05:14:04.606Z,7.57
2022-08-02T05:16:32.405Z,6.93
2022-08-02T05:19:05.082Z,9.13
2022-08-02T05:21:33.457Z,10.73
2022-08-02T05:24:00.738Z,6.57
2022-08-02T05:26:28.186Z,7.97
2022-08-02T05:28:56.834Z,9.10
2022-08-02T05:31:24.105Z,14.60
2022-08-02T05:33:51.378Z,11.93
2022-08-02T05:36:18.735Z,10.63
2022-08-02T05:41:44.901Z,12.23
2022-08-02T05:44:12.832Z,7.93
2022-08-02T05:46:41.840Z,9.93
2022-08-02T05:49:09.120Z,9.33
2022-08-02T05:51:41.839Z,9.77
2022-08-02T05:54:41.678Z,8.73
2022-08-02T05:57:25.155Z,8.97
2022-08-02T06:00:04.549Z,11.80
2022-08-02T06:02:32.925Z,11.47
2022-08-02T06:05:11.542Z,12.97
2022-08-02T06:07:42.584Z,10.20
2022-08-02T06:10:10.459Z,10.70
2022-08-02T06:12:42.313Z,11.60
2022-08-02T06:15:13.054Z,13.77
2022-08-02T06:17:45.579Z,13.17
2022-08-02T06:20:14.310Z,13.27
2022-08-02T06:22:48.004Z,13.33
2022-08-02T06:25:50.245Z,14.07
2022-08-02T06:28:10.473Z,11.80
2022-08-02T06:30:40.084Z,11.70
2022-08-02T06:33:07.350Z,14.33
2022-08-02T06:35:36.649Z,11.33
2022-08-02T06:38:05.013Z,11.53
2022-08-02T06:40:33.637Z,14.87
2022-08-02T06:43:05.367Z,12.43
2022-08-02T06:45:35.212Z,14.87
2022-08-02T06:48:05.231Z,9.43
2022-08-02T06:50:32.563Z,11.53
2022-08-02T06:53:01.155Z,19.67
2022-08-02T06:55:29.689Z,15.10
2022-08-02T06:57:57.078Z,11.27
2022-08-02T07:00:24.553Z,15.00
2022-08-02T07:02:52.888Z,16.47
2022-08-02T07:05:20.169Z,16.50
2022-08-02T07:07:47.715Z,12.97
2022-08-02T07:10:15.477Z,12.00
2022-08-02T07:12:42.683Z,10.90
2022-08-02T07:15:12.236Z,10.30
2022-08-02T07:17:39.447Z,14.73
2022-08-02T07:20:07.563Z,12.70
2022-08-02T07:22:35.351Z,14.43
2022-08-02T07:25:04.344Z,11.87
2022-08-02T07:27:31.921Z,18.83
2022-08-02T07:29:59.456Z,10.23
2022-08-02T07:32:29.992Z,15.83
2022-08-02T07:34:57.447Z,13.68
2022-08-02T07:37:52.851Z,11.00
2022-08-02T07:40:20.671Z,9.02
2022-08-02T07:42:49.649Z,10.57
2022-08-02T07:45:17.230Z,9.98
2022-08-02T07:47:45.360Z,8.82
2022-08-02T07:50:16.911Z,10.68
2022-08-02T07:52:44.875Z,11.63
2022-08-02T07:55:12.835Z,13.02
2022-08-02T07:57:45.920Z,10.77
2022-08-02T08:00:14.437Z,13.75
2022-08-02T08:02:41.967Z,11.98
2022-08-02T08:05:09.413Z,6.50
2022-08-02T08:07:36.893Z,6.03
2022-08-02T08:10:05.674Z,6.03
2022-08-02T08:12:33.259Z,9.15
2022-08-02T08:15:00.688Z,5.47
2022-08-02T08:17:28.066Z,5.78
2022-08-02T08:19:55.375Z,8.10
2022-08-02T08:22:22.881Z,7.38
2022-08-02T08:24:50.439Z,9.80
2022-08-02T08:27:18.458Z,5.22
2022-08-02T08:29:46.310Z,10.27
2022-08-02T08:32:18.227Z,4.63
2022-08-02T08:34:50.907Z,5.43
2022-08-02T08:37:18.818Z,5.05
2022-08-02T08:39:56.632Z,4.63
2022-08-02T08:42:27.324Z,4.07
2022-08-02T08:44:59.157Z,4.85
2022-08-02T08:47:35.539Z,7.22
2022-08-02T08:50:05.003Z,5.38
2022-08-02T08:52:37.416Z,5.10
2022-08-02T08:55:08.772Z,6.60
2022-08-02T08:57:39.791Z,17.17
2022-08-02T09:00:07.593Z,18.40
2022-08-02T09:02:38.193Z,13.43
2022-08-02T09:05:05.695Z,17.30
2022-08-02T09:07:33.020Z,10.88
2022-08-02T09:10:00.207Z,9.00
2022-08-02T09:12:27.638Z,8.13
2022-08-02T09:14:54.964Z,8.43
2022-08-02T09:17:23.930Z,22.15
2022-08-02T09:20:17.655Z,7.97
2022-08-02T09:22:44.885Z,18.55
2022-08-02T09:25:16.858Z,5.15
2022-08-02T09:27:45.932Z,9.35
2022-08-02T09:30:17.348Z,7.78
2022-08-02T09:32:59.995Z,10.90
2022-08-02T09:36:07.050Z,9.55
2022-08-02T09:38:25.988Z,8.52
2022-08-02T09:40:54.948Z,3.22
2022-08-02T09:44:03.165Z,7.63
2022-08-02T09:46:33.880Z,7.82
2022-08-02T09:49:04.916Z,5.05
2022-08-02T09:51:38.859Z,5.68
2022-08-02T09:54:17.553Z,4.53
2022-08-02T09:57:05.824Z,4.45
2022-08-02T10:06:47.978Z,6.28
2022-08-02T10:09:15.261Z,3.13
2022-08-02T10:11:42.828Z,3.28
2022-08-02T10:14:11.256Z,5.18
2022-08-02T10:16:39.938Z,5.90
2022-08-02T10:19:09.563Z,5.65
2022-08-02T10:21:51.031Z,5.38
2022-08-02T10:24:19.716Z,3.47
2022-08-02T10:26:48.101Z,6.22
2022-08-02T10:29:19.356Z,11.05
2022-08-02T10:31:57.456Z,3.78
2022-08-02T10:34:31.755Z,5.15
2022-08-02T10:37:02.449Z,3.92
2022-08-02T10:39:29.662Z,4.43
2022-08-02T10:41:58.175Z,7.28
2022-08-02T10:44:28.116Z,5.55
2022-08-02T10:47:15.209Z,2.90
2022-08-02T10:49:49.790Z,5.30
2022-08-02T10:52:18.420Z,4.43
2022-08-02T10:54:50.015Z,4.75
2022-08-02T10:57:23.823Z,8.70
2022-08-02T10:59:56.873Z,3.85
2022-08-02T11:02:44.867Z,3.88
2022-08-02T11:05:17.023Z,5.35
2022-08-02T11:08:19.006Z,4.05
2022-08-02T11:10:46.339Z,3.08
2022-08-02T11:13:40.010Z,3.35
2022-08-02T11:16:11.593Z,3.60
2022-08-02T11:22:16.651Z,2.67
2022-08-02T11:28:34.414Z,2.33
2022-08-02T11:37:46.033Z,5.78
2022-08-02T11:40:19.493Z,3.28
2022-08-02T11:42:50.769Z,3.13
2022-08-02T11:45:21.137Z,3.53
2022-08-02T11:47:50.054Z,3.38
2022-08-02T11:51:20.160Z,4.55
2022-08-02T11:53:54.539Z,3.08
2022-08-02T12:24:11.963Z,3.83
2022-08-02T12:26:46.167Z,4.57
2022-08-02T12:33:14.461Z,4.43
2022-08-02T12:43:21.865Z,4.28
2022-08-02T12:45:49.290Z,4.03
2022-08-02T12:48:36.633Z,4.68
2022-08-02T12:51:22.886Z,3.60
2022-08-02T12:53:58.971Z,4.43
2022-08-02T12:56:34.489Z,3.53
2022-08-02T12:59:01.776Z,3.58
2022-08-02T13:01:30.026Z,3.28
2022-08-02T13:04:11.363Z,3.25
2022-08-02T13:06:44.392Z,4.47
2022-08-02T13:09:13.340Z,3.38
2022-08-02T13:11:43.054Z,3.47
2022-08-02T13:14:11.520Z,3.47
2022-08-02T15:50:47.378Z,2.40
2022-08-02T16:07:29.032Z,2.28
2022-08-02T16:13:53.071Z,2.50
2022-08-02T16:20:43.136Z,3.30
2022-08-02T16:23:58.626Z,2.72
2022-08-02T16:29:56.841Z,3.90
2022-08-02T16:36:54.988Z,2.95
2022-08-02T16:43:20.907Z,2.42
2022-08-02T16:45:54.154Z,2.33
2022-08-02T16:51:27.240Z,2.97
2022-08-02T16:57:43.362Z,3.08
2022-08-02T17:00:15.582Z,2.40
2022-08-02T17:02:43.368Z,2.40
2022-08-02T17:12:11.004Z,4.60
2022-08-02T17:21:45.693Z,2.33
2022-08-02T17:24:13.076Z,4.80
2022-08-02T17:26:40.572Z,2.72
2022-08-02T17:29:15.430Z,6.13
2022-08-02T17:31:46.463Z,2.47
2022-08-02T17:34:31.018Z,4.38
2022-08-02T17:36:58.580Z,2.65
2022-08-02T17:39:25.928Z,2.17
2022-08-02T17:42:01.336Z,1.95
2022-08-02T17:44:37.232Z,3.22
2022-08-02T17:47:07.196Z,2.40
2022-08-02T17:49:43.891Z,2.60
2022-08-02T18:05:39.466Z,2.50
2022-08-02T18:08:09.198Z,5.13
2022-08-02T18:18:30.116Z,4.78
2022-08-02T18:21:25.724Z,3.72
2022-08-02T18:27:43.390Z,2.60
2022-08-02T18:30:12.519Z,3.03
2022-08-02T18:33:57.102Z,3.03
2022-08-02T18:35:29.503Z,3.95
2022-08-02T18:38:38.972Z,2.20
2022-08-02T19:23:20.588Z,2.63
2022-08-02T19:25:59.140Z,3.35
2022-08-02T19:39:50.009Z,2.92
2022-08-02T19:42:26.777Z,2.10
2022-08-02T19:44:59.981Z,2.53
2022-08-02T19:48:29.003Z,2.15
2022-08-02T20:14:08.932Z,2.40
2022-08-02T20:16:50.426Z,3.47
2022-08-02T20:19:59.943Z,2.53
2022-08-02T20:26:09.077Z,5.40
2022-08-02T20:35:00.151Z,3.38
2022-08-02T21:15:53.252Z,4.67
2022-08-02T21:31:35.582Z,2.70
2022-08-02T21:54:18.750Z,3.47
2022-08-02T22:03:38.341Z,3.53
2022-08-02T22:06:48.989Z,3.93
2022-08-02T22:26:52.468Z,3.97
2022-08-02T22:30:12.235Z,4.00
2022-08-02T22:33:05.343Z,3.83
2022-08-02T22:36:04.070Z,4.00
2022-08-02T22:44:14.803Z,4.47
2022-08-02T22:47:00.133Z,4.70
2022-08-02T22:49:51.869Z,6.00
2022-08-02T22:52:26.504Z,6.30
2022-08-02T22:55:06.349Z,4.23
2022-08-02T22:57:50.607Z,4.07
2022-08-02T22:58:57.785Z,2.28
2022-08-02T22:59:11.208Z,3.25
2022-08-02T23:00:34.400Z,4.27
2022-08-02T23:05:50.211Z,4.43
2022-08-02T23:08:20.336Z,6.90
2022-08-02T23:10:58.231Z,6.47
2022-08-02T23:19:51.843Z,6.23
2022-08-02T23:25:43.394Z,7.03
2022-08-02T23:28:17.928Z,4.63
2022-08-02T23:31:24.489Z,7.47
2022-08-02T23:39:10.652Z,7.23
2022-08-02T23:41:49.320Z,4.00
2022-08-02T23:44:49.552Z,4.67
2022-08-02T23:47:37.516Z,5.70
2022-08-02T23:50:21.988Z,5.13
2022-08-02T23:52:53.250Z,6.10
